createdAt,value
2023-02-02T00:02:24.078Z,3.6
2023-02-02T00:17:34.007Z,4
2023-02-02T00:32:43.474Z,3.9
2023-02-02T00:47:52.771Z,3.5
2023-02-02T01:03:02.187Z,3.5
2023-02-02T01:18:11.463Z,4
2023-02-02T01:33:21.058Z,3.7
2023-02-02T01:48:30.588Z,4.1
2023-02-02T02:03:39.805Z,4.3
2023-02-02T02:18:50.983Z,3.2
2023-02-02T02:34:00.286Z,4.2
2023-02-02T02:49:09.499Z,4.2
2023-02-02T03:04:18.921Z,3.9
2023-02-02T03:19:28.441Z,4
2023-02-02T03:34:37.404Z,3.8
2023-02-02T03:49:46.495Z,3.9
2023-02-02T04:04:55.836Z,5.3
2023-02-02T04:20:04.389Z,4.3
2023-02-02T04:35:13.960Z,5.2
2023-02-02T04:50:27.506Z,4.5
2023-02-02T05:05:36.802Z,4.3
2023-02-02T05:20:45.637Z,4.1
2023-02-02T05:35:54.866Z,5.1
2023-02-02T05:51:04.471Z,5.1
2023-02-02T06:06:14.534Z,5
2023-02-02T06:21:24.009Z,4.9
2023-02-02T06:36:33.674Z,4.9
2023-02-02T06:51:43.147Z,5.6
2023-02-02T07:06:53.826Z,4.7
2023-02-02T07:22:03.386Z,5.4
2023-02-02T07:37:12.898Z,5.1
2023-02-02T07:52:22.971Z,4.6
2023-02-02T08:07:32.387Z,4.9
2023-02-02T08:22:41.904Z,4.5
2023-02-02T08:37:51.748Z,5.4
2023-02-02T08:53:01.461Z,3.3
2023-02-02T09:08:11.999Z,3.4
2023-02-02T09:23:21.571Z,2.8
2023-02-02T09:38:31.800Z,3.4
2023-02-02T09:53:56.157Z,2.6
2023-02-02T10:09:06.285Z,2.6
2023-02-02T10:24:15.532Z,3.6
2023-02-02T10:39:25.578Z,2.8
2023-02-02T10:54:57.495Z,3.3
2023-02-02T11:10:13.753Z,3.8
2023-02-02T11:25:23.297Z,3.2
2023-02-02T11:40:33.068Z,3.8
2023-02-02T11:55:42.917Z,3.5
2023-02-02T12:10:56.161Z,3.8
2023-02-02T12:26:05.548Z,3.7
2023-02-02T12:41:15.040Z,3.8
2023-02-02T12:56:24.401Z,3.3
2023-02-02T13:11:34.236Z,4.2
2023-02-02T13:26:43.882Z,5.1
2023-02-02T13:41:56.099Z,4.7
2023-02-02T13:57:06.085Z,4
2023-02-02T14:12:14.915Z,5
2023-02-02T14:27:24.762Z,5.3
2023-02-02T14:42:34.423Z,3.6
2023-02-02T14:57:45.285Z,4.2
2023-02-02T15:12:55.631Z,4.5
2023-02-02T15:28:04.738Z,4.2
2023-02-02T15:43:58.900Z,3.9
2023-02-02T15:59:09.353Z,4
2023-02-02T16:14:19.031Z,3.4
2023-02-02T16:29:28.214Z,3.9
2023-02-02T16:44:37.817Z,3.8
2023-02-02T16:59:47.711Z,4.3
2023-02-02T17:14:57.089Z,4.1
2023-02-02T17:30:06.201Z,4.7
2023-02-02T17:45:16.020Z,5.1
2023-02-02T18:00:25.893Z,3.8
2023-02-02T18:15:40.628Z,5.2
2023-02-02T18:30:50.842Z,4.8
2023-02-02T18:46:01.388Z,3.9
2023-02-02T19:01:11.157Z,5.1
2023-02-02T19:16:20.564Z,8.3
2023-02-02T19:31:30.824Z,4.9
2023-02-02T19:46:40.366Z,4.8
2023-02-02T20:01:50.844Z,5.1
2023-02-02T20:16:59.610Z,3.5
2023-02-02T20:32:09.294Z,3.6
2023-02-02T20:47:18.996Z,4.6
2023-02-02T21:02:29.260Z,4.1
2023-02-02T21:17:39.515Z,5.2
2023-02-02T21:32:49.368Z,4.7
2023-02-02T21:47:58.434Z,4.5
2023-02-02T22:03:07.744Z,8.5
2023-02-02T22:18:17.738Z,15
2023-02-02T22:33:28.021Z,16.2
2023-02-02T22:48:37.792Z,19.2
2023-02-02T23:03:47.820Z,18.6
2023-02-02T23:18:58.446Z,21.3
2023-02-02T23:34:08.668Z,24.1
2023-02-02T23:49:18.709Z,23.1
